createdAt,value
2023-05-12T00:00:56.652Z,4.00
2023-05-12T00:03:24.370Z,7.30
2023-05-12T00:05:51.286Z,5.85
2023-05-12T00:08:18.178Z,5.60
2023-05-12T00:10:44.735Z,5.45
2023-05-12T00:13:11.711Z,7.40
2023-05-12T00:15:38.537Z,6.47
2023-05-12T00:18:05.230Z,5.07
2023-05-12T00:20:31.772Z,5.50
2023-05-12T00:22:58.298Z,5.53
2023-05-12T00:25:24.865Z,6.57
2023-05-12T00:27:51.378Z,6.00
2023-05-12T00:30:18.228Z,5.85
2023-05-12T00:32:45.034Z,6.45
2023-05-12T00:35:11.602Z,7.32
2023-05-12T00:37:38.118Z,7.60
2023-05-12T00:40:05.250Z,6.82
2023-05-12T00:42:34.630Z,5.57
2023-05-12T00:45:01.428Z,6.50
2023-05-12T00:47:28.709Z,5.93
2023-05-12T00:49:55.390Z,5.25
2023-05-12T00:52:22.192Z,6.03
2023-05-12T00:54:49.829Z,6.43
2023-05-12T00:57:16.905Z,7.70
2023-05-12T00:59:43.473Z,6.53
2023-05-12T01:02:10.242Z,8.27
2023-05-12T01:04:38.704Z,6.47
2023-05-12T01:07:15.666Z,7.18
2023-05-12T01:09:42.220Z,7.20
2023-05-12T01:12:08.844Z,7.03
2023-05-12T01:14:35.734Z,6.28
2023-05-12T01:17:07.481Z,6.00
2023-05-12T01:19:54.365Z,7.10
2023-05-12T01:22:21.354Z,7.07
2023-05-12T01:25:05.680Z,6.38
2023-05-12T01:27:33.937Z,8.70
2023-05-12T01:30:05.923Z,5.95
2023-05-12T01:32:32.731Z,7.38
2023-05-12T01:34:59.914Z,7.65
2023-05-12T01:37:26.932Z,8.48
2023-05-12T01:39:54.066Z,7.10
2023-05-12T01:42:20.679Z,6.63
2023-05-12T01:44:47.262Z,7.15
2023-05-12T01:47:15.637Z,7.00
2023-05-12T01:49:42.253Z,8.52
2023-05-12T01:52:08.794Z,6.35
2023-05-12T01:54:35.384Z,8.70
2023-05-12T01:57:01.970Z,6.25
2023-05-12T01:59:28.563Z,6.28
2023-05-12T02:01:55.232Z,5.30
2023-05-12T02:04:21.926Z,5.93
2023-05-12T02:06:48.464Z,7.88
2023-05-12T02:09:15.027Z,5.13
2023-05-12T02:11:41.726Z,5.57
2023-05-12T02:14:08.298Z,5.57
2023-05-12T02:16:34.916Z,7.05
2023-05-12T02:19:01.576Z,6.70
2023-05-12T02:21:28.225Z,6.50
2023-05-12T02:23:56.089Z,6.55
2023-05-12T02:26:22.693Z,8.00
2023-05-12T02:28:49.226Z,9.00
2023-05-12T02:31:15.804Z,7.88
2023-05-12T02:33:42.392Z,7.50
2023-05-12T02:36:09.160Z,7.40
2023-05-12T02:38:36.283Z,8.65
2023-05-12T02:41:02.884Z,10.80
2023-05-12T02:43:29.423Z,8.70
2023-05-12T02:45:56.098Z,7.60
2023-05-12T02:48:22.663Z,8.00
2023-05-12T02:50:49.167Z,11.57
2023-05-12T02:53:15.847Z,9.38
2023-05-12T02:55:42.674Z,8.85
2023-05-12T02:58:09.210Z,9.05
2023-05-12T03:00:35.883Z,8.27
2023-05-12T03:03:02.504Z,9.68
2023-05-12T03:05:29.098Z,8.00
2023-05-12T03:07:55.776Z,8.23
2023-05-12T03:10:22.719Z,7.60
2023-05-12T03:12:49.503Z,9.10
2023-05-12T03:15:16.093Z,9.13
2023-05-12T03:17:42.701Z,8.10
2023-05-12T03:20:09.628Z,7.85
2023-05-12T03:22:36.361Z,8.60
2023-05-12T03:25:04.750Z,9.38
2023-05-12T03:27:32.900Z,7.32
2023-05-12T03:30:04.904Z,8.15
2023-05-12T03:32:31.609Z,7.45
2023-05-12T03:34:58.217Z,8.45
2023-05-12T03:37:24.768Z,7.38
2023-05-12T03:39:51.337Z,8.70
2023-05-12T03:42:17.899Z,8.05
2023-05-12T03:44:44.432Z,8.15
2023-05-12T03:47:11.056Z,9.68
2023-05-12T03:49:37.772Z,8.38
2023-05-12T03:52:04.548Z,8.70
2023-05-12T03:54:31.104Z,9.35
2023-05-12T03:56:57.686Z,9.20
2023-05-12T03:59:24.246Z,8.10
2023-05-12T04:01:53.186Z,7.90
2023-05-12T04:04:19.906Z,8.15
2023-05-12T04:06:46.450Z,7.70
2023-05-12T04:09:12.957Z,9.23
2023-05-12T04:11:39.546Z,7.55
2023-05-12T04:14:06.085Z,9.57
2023-05-12T04:16:32.718Z,9.18
2023-05-12T04:18:59.375Z,11.15
2023-05-12T04:21:25.944Z,8.25
2023-05-12T04:23:52.759Z,7.78
2023-05-12T04:26:19.375Z,9.50
2023-05-12T04:28:46.577Z,7.47
2023-05-12T04:31:13.287Z,7.55
2023-05-12T04:33:39.827Z,8.95
2023-05-12T04:36:07.004Z,8.00
2023-05-12T04:38:33.534Z,8.75
2023-05-12T04:41:00.629Z,7.40
2023-05-12T04:45:59.753Z,6.60
2023-05-12T04:48:27.417Z,9.68
2023-05-12T04:50:54.045Z,6.65
2023-05-12T04:53:20.744Z,7.50
2023-05-12T04:55:47.279Z,8.25
2023-05-12T04:58:13.847Z,7.13
2023-05-12T05:00:40.617Z,8.50
2023-05-12T05:03:07.335Z,7.75
2023-05-12T05:05:33.916Z,7.53
2023-05-12T05:08:01.569Z,8.18
2023-05-12T05:10:28.136Z,6.95
2023-05-12T05:12:54.904Z,8.48
2023-05-12T05:15:21.591Z,8.15
2023-05-12T05:17:49.614Z,10.55
2023-05-12T05:20:16.835Z,9.15
2023-05-12T05:22:43.751Z,8.00
2023-05-12T05:25:10.875Z,9.80
2023-05-12T05:27:38.577Z,6.72
2023-05-12T05:30:08.735Z,9.40
2023-05-12T05:32:37.021Z,7.57
2023-05-12T05:35:03.853Z,8.95
2023-05-12T05:37:30.605Z,7.45
2023-05-12T05:39:57.324Z,7.40
2023-05-12T05:42:24.133Z,7.20
2023-05-12T05:44:50.758Z,8.07
2023-05-12T05:47:17.278Z,7.10
2023-05-12T05:49:44.162Z,6.80
2023-05-12T05:52:10.961Z,5.75
2023-05-12T05:54:37.564Z,6.85
2023-05-12T05:57:04.282Z,6.03
2023-05-12T05:59:30.977Z,6.85
2023-05-12T06:01:57.913Z,5.95
2023-05-12T06:04:24.643Z,7.25
2023-05-12T06:06:51.235Z,6.63
2023-05-12T06:09:17.807Z,7.15
2023-05-12T06:11:44.540Z,6.32
2023-05-12T06:14:11.641Z,6.03
2023-05-12T06:16:38.342Z,6.68
2023-05-12T06:19:05.166Z,6.60
2023-05-12T06:21:32.140Z,8.00
2023-05-12T06:23:59.115Z,6.78
2023-05-12T06:26:25.645Z,7.32
2023-05-12T06:28:52.177Z,6.45
2023-05-12T06:31:19.012Z,6.53
2023-05-12T06:33:45.989Z,7.72
2023-05-12T06:36:12.584Z,6.68
2023-05-12T06:38:39.160Z,9.63
2023-05-12T06:41:05.751Z,16.10
2023-05-12T06:43:32.327Z,6.85
2023-05-12T06:45:58.982Z,7.75
2023-05-12T06:48:25.576Z,6.13
2023-05-12T06:50:52.505Z,7.70
2023-05-12T06:53:19.088Z,6.60
2023-05-12T06:55:46.889Z,10.35
2023-05-12T06:58:13.507Z,10.35
2023-05-12T07:00:40.102Z,8.63
2023-05-12T07:03:09.925Z,8.10
2023-05-12T07:05:37.036Z,8.50
2023-05-12T07:08:03.978Z,6.97
2023-05-12T07:10:30.749Z,6.65
2023-05-12T07:12:57.651Z,7.88
2023-05-12T07:15:24.309Z,6.15
2023-05-12T07:17:51.244Z,6.57
2023-05-12T07:20:17.856Z,5.30
2023-05-12T07:22:44.470Z,6.30
2023-05-12T07:25:11.502Z,5.65
2023-05-12T07:27:38.177Z,5.25
2023-05-12T07:30:08.905Z,5.70
2023-05-12T07:32:35.504Z,5.97
2023-05-12T07:35:02.270Z,5.85
2023-05-12T07:37:29.119Z,5.03
2023-05-12T07:39:55.852Z,4.47
2023-05-12T07:42:22.514Z,4.82
2023-05-12T07:44:49.313Z,5.13
2023-05-12T07:47:16.003Z,6.18
2023-05-12T07:49:42.613Z,6.47
2023-05-12T07:52:09.406Z,5.68
2023-05-12T07:54:35.947Z,5.05
2023-05-12T07:57:02.474Z,5.05
2023-05-12T07:59:29.011Z,4.47
2023-05-12T08:01:55.556Z,5.18
2023-05-12T08:04:22.259Z,4.13
2023-05-12T08:06:48.801Z,5.72
2023-05-12T08:09:15.305Z,3.90
2023-05-12T08:11:44.674Z,4.53
2023-05-12T08:16:39.698Z,3.75
2023-05-12T08:19:06.282Z,3.35
2023-05-12T08:21:33.311Z,5.25
2023-05-12T08:23:59.868Z,4.03
2023-05-12T08:26:26.890Z,5.40
2023-05-12T08:28:53.386Z,3.58
2023-05-12T08:31:20.788Z,3.10
2023-05-12T08:33:51.808Z,3.65
2023-05-12T08:36:26.097Z,3.88
2023-05-12T08:38:52.675Z,4.93
2023-05-12T08:41:22.229Z,3.83
2023-05-12T08:43:52.729Z,4.95
2023-05-12T08:46:20.864Z,5.07
2023-05-12T08:48:50.924Z,3.08
2023-05-12T08:51:18.982Z,3.77
2023-05-12T08:53:49.007Z,2.90
2023-05-12T08:58:49.613Z,3.20
2023-05-12T09:01:18.100Z,3.22
2023-05-12T09:03:44.998Z,4.80
2023-05-12T09:06:12.039Z,7.93
2023-05-12T09:08:40.367Z,7.10
2023-05-12T09:11:10.708Z,5.53
2023-05-12T09:14:14.981Z,4.50
2023-05-12T09:16:44.432Z,4.68
2023-05-12T09:19:11.122Z,6.03
2023-05-12T09:21:37.738Z,4.60
2023-05-12T09:24:08.761Z,3.17
2023-05-12T09:26:51.137Z,5.60
2023-05-12T09:29:30.644Z,7.00
2023-05-12T09:31:59.446Z,3.22
2023-05-12T09:34:31.384Z,4.95
2023-05-12T09:37:03.842Z,3.03
2023-05-12T09:39:30.556Z,5.57
2023-05-12T09:41:57.366Z,2.92
2023-05-12T09:44:24.943Z,2.88
2023-05-12T09:46:52.716Z,3.33
2023-05-12T09:49:27.824Z,4.85
2023-05-12T09:52:01.092Z,4.05
2023-05-12T09:54:32.125Z,2.75
2023-05-12T09:57:04.697Z,3.92
2023-05-12T09:59:36.004Z,2.45
2023-05-12T10:02:05.339Z,4.30
2023-05-12T10:04:52.478Z,4.72
2023-05-12T10:07:22.620Z,1.90
2023-05-12T10:09:49.618Z,3.28
2023-05-12T10:12:16.787Z,3.17
2023-05-12T10:14:44.209Z,2.33
2023-05-12T10:17:12.279Z,3.60
2023-05-12T10:19:41.289Z,1.80
2023-05-12T10:22:11.090Z,3.15
2023-05-12T10:24:39.239Z,1.60
2023-05-12T10:27:06.264Z,1.98
2023-05-12T10:29:34.088Z,2.22
2023-05-12T10:32:03.631Z,2.50
2023-05-12T10:34:34.991Z,2.08
2023-05-12T10:37:08.055Z,2.67
2023-05-12T10:39:35.084Z,2.03
2023-05-12T10:42:08.696Z,2.35
2023-05-12T10:44:36.481Z,1.40
2023-05-12T10:47:13.979Z,1.40
2023-05-12T10:49:41.768Z,1.98
2023-05-12T10:52:12.196Z,2.85
2023-05-12T10:54:46.718Z,1.40
2023-05-12T10:57:18.386Z,2.35
2023-05-12T10:59:51.550Z,2.60
2023-05-12T11:02:24.945Z,2.17
2023-05-12T11:04:56.266Z,1.83
2023-05-12T11:07:28.405Z,2.90
2023-05-12T11:10:00.026Z,1.42
2023-05-12T11:12:32.197Z,4.20
2023-05-12T11:17:26.276Z,3.97
2023-05-12T11:19:52.923Z,3.30
2023-05-12T11:22:23.525Z,4.80
2023-05-12T11:24:52.352Z,1.70
2023-05-12T11:27:20.503Z,3.75
2023-05-12T11:29:59.718Z,1.65
2023-05-12T11:32:27.015Z,3.10
2023-05-12T11:34:53.650Z,2.22
2023-05-12T11:37:21.136Z,1.48
2023-05-12T11:39:48.266Z,3.60
2023-05-12T11:42:17.603Z,4.65
2023-05-12T11:44:47.881Z,1.55
2023-05-12T11:47:16.009Z,2.33
2023-05-12T11:49:54.651Z,1.95
2023-05-12T11:52:23.799Z,1.35
2023-05-12T11:54:56.874Z,1.65
2023-05-12T11:57:32.868Z,1.10
2023-05-12T12:00:01.593Z,2.50
2023-05-12T12:02:28.456Z,4.32
2023-05-12T12:04:55.541Z,3.45
2023-05-12T12:07:33.733Z,4.85
2023-05-12T12:10:15.153Z,1.77
2023-05-12T12:12:42.399Z,3.28
2023-05-12T12:15:12.970Z,2.15
2023-05-12T12:17:42.169Z,2.40
2023-05-12T12:20:09.384Z,2.00
2023-05-12T12:22:36.144Z,1.10
2023-05-12T12:25:03.449Z,1.10
2023-05-12T12:27:30.374Z,1.20
2023-05-12T12:29:56.939Z,2.20
2023-05-12T12:32:23.647Z,2.55
2023-05-12T12:34:50.373Z,3.78
2023-05-12T12:37:17.126Z,1.45
2023-05-12T12:39:43.852Z,2.55
2023-05-12T12:42:10.401Z,2.20
2023-05-12T12:44:36.966Z,1.90
2023-05-12T12:47:04.192Z,2.03
2023-05-12T12:49:30.854Z,2.42
2023-05-12T12:51:57.487Z,3.38
2023-05-12T12:54:26.911Z,2.10
2023-05-12T12:56:53.581Z,10.30
2023-05-12T12:59:20.182Z,1.85
2023-05-12T13:01:46.794Z,2.15
2023-05-12T13:04:13.434Z,0.95
2023-05-12T13:06:39.994Z,2.25
2023-05-12T13:09:06.588Z,1.60
2023-05-12T13:11:33.215Z,1.23
2023-05-12T13:14:02.090Z,2.45
2023-05-12T13:16:29.918Z,1.35
2023-05-12T13:18:56.510Z,1.45
2023-05-12T13:21:23.144Z,1.17
2023-05-12T13:23:49.709Z,6.13
2023-05-12T13:26:16.262Z,4.53
2023-05-12T13:28:43.089Z,1.17
2023-05-12T13:31:09.881Z,1.55
2023-05-12T13:33:36.448Z,3.83
2023-05-12T13:36:03.151Z,3.75
2023-05-12T13:38:30.733Z,2.40
2023-05-12T13:40:57.335Z,0.70
2023-05-12T13:43:23.953Z,1.73
2023-05-12T13:45:50.903Z,0.70
2023-05-12T13:48:17.736Z,1.63
2023-05-12T13:50:44.423Z,1.30
2023-05-12T13:53:12.458Z,1.45
2023-05-12T13:55:40.867Z,2.58
2023-05-12T13:58:07.621Z,5.78
2023-05-12T14:00:34.186Z,1.20
2023-05-12T14:03:01.563Z,6.47
2023-05-12T14:05:28.347Z,2.65
2023-05-12T14:07:55.547Z,0.70
2023-05-12T14:10:22.104Z,2.33
2023-05-12T14:12:48.716Z,0.75
2023-05-12T14:15:26.534Z,0.88
2023-05-12T14:17:59.730Z,3.83
2023-05-12T14:20:26.276Z,4.15
2023-05-12T14:22:52.792Z,1.75
2023-05-12T14:25:19.583Z,4.03
2023-05-12T14:27:46.459Z,0.73
2023-05-12T14:30:13.587Z,0.80
2023-05-12T14:32:40.248Z,1.02
2023-05-12T14:35:08.385Z,0.68
2023-05-12T14:37:35.164Z,2.33
2023-05-12T14:40:02.007Z,1.88
2023-05-12T14:42:30.055Z,3.05
2023-05-12T14:44:56.950Z,1.88
2023-05-12T14:47:23.914Z,3.83
2023-05-12T14:49:50.490Z,1.20
2023-05-12T14:52:17.126Z,2.47
2023-05-12T14:54:44.130Z,2.45
2023-05-12T14:57:10.737Z,2.63
2023-05-12T14:59:38.486Z,1.17
2023-05-12T15:02:05.408Z,1.60
2023-05-12T15:04:32.134Z,1.20
2023-05-12T15:06:58.911Z,1.33
2023-05-12T15:09:25.436Z,2.40
2023-05-12T15:11:52.442Z,0.80
2023-05-12T15:14:18.978Z,3.33
2023-05-12T15:16:45.971Z,2.13
2023-05-12T15:19:12.702Z,1.55
2023-05-12T15:21:39.381Z,0.75
2023-05-12T15:24:06.314Z,0.85
2023-05-12T15:26:34.681Z,1.85
2023-05-12T15:29:02.244Z,0.70
2023-05-12T15:31:29.584Z,2.28
2023-05-12T15:33:57.068Z,2.60
2023-05-12T15:36:23.695Z,2.50
2023-05-12T15:38:50.515Z,1.10
2023-05-12T15:41:17.133Z,1.85
2023-05-12T15:43:43.691Z,1.35
2023-05-12T15:46:11.697Z,1.73
2023-05-12T15:48:39.122Z,2.25
2023-05-12T15:51:05.892Z,2.25
2023-05-12T15:53:32.529Z,3.13
2023-05-12T15:56:03.829Z,2.28
2023-05-12T15:58:31.152Z,5.22
2023-05-12T16:00:57.954Z,3.03
2023-05-12T16:03:24.727Z,2.63
2023-05-12T16:05:51.697Z,3.15
2023-05-12T16:08:18.819Z,18.55
2023-05-12T16:10:45.365Z,4.15
2023-05-12T16:13:11.950Z,2.63
2023-05-12T16:15:38.508Z,3.72
2023-05-12T16:18:07.559Z,3.38
2023-05-12T16:20:35.884Z,2.00
2023-05-12T16:23:02.643Z,1.83
2023-05-12T16:25:29.172Z,2.00
2023-05-12T16:27:55.939Z,1.40
2023-05-12T16:30:22.590Z,1.27
2023-05-12T16:32:49.271Z,1.52
2023-05-12T16:35:16.350Z,1.45
2023-05-12T16:37:42.900Z,1.58
2023-05-12T16:40:09.784Z,3.20
2023-05-12T16:42:37.014Z,1.08
2023-05-12T16:45:03.679Z,1.25
2023-05-12T16:47:30.339Z,1.50
2023-05-12T16:49:58.893Z,1.83
2023-05-12T16:52:26.385Z,0.80
2023-05-12T16:54:55.451Z,1.70
2023-05-12T16:57:21.957Z,2.88
2023-05-12T16:59:48.601Z,1.27
2023-05-12T17:02:15.624Z,2.50
2023-05-12T17:04:42.309Z,0.80
2023-05-12T17:07:09.631Z,1.65
2023-05-12T17:09:36.363Z,3.05
2023-05-12T17:12:04.262Z,1.25
2023-05-12T17:14:31.119Z,1.20
2023-05-12T17:16:57.730Z,4.20
2023-05-12T17:19:24.332Z,0.85
2023-05-12T17:21:51.009Z,1.15
2023-05-12T17:24:17.665Z,1.80
2023-05-12T17:26:44.804Z,1.50
2023-05-12T17:29:11.419Z,0.98
2023-05-12T17:31:38.471Z,1.08
2023-05-12T17:34:05.176Z,1.75
2023-05-12T17:36:31.914Z,1.33
2023-05-12T17:38:58.534Z,0.82
2023-05-12T17:41:26.417Z,0.68
2023-05-12T17:43:55.332Z,0.63
2023-05-12T17:46:21.958Z,0.70
2023-05-12T17:48:48.565Z,0.90
2023-05-12T17:51:15.376Z,1.35
2023-05-12T17:53:42.135Z,1.35
2023-05-12T17:56:08.779Z,1.88
2023-05-12T17:58:35.342Z,1.25
2023-05-12T18:01:02.051Z,3.42
2023-05-12T18:03:28.648Z,1.13
2023-05-12T18:05:55.269Z,3.92
2023-05-12T18:08:22.075Z,0.82
2023-05-12T18:10:48.825Z,1.00
2023-05-12T18:13:15.864Z,1.60
2023-05-12T18:15:42.446Z,1.20
2023-05-12T18:18:10.316Z,0.85
2023-05-12T18:20:36.975Z,2.53
2023-05-12T18:23:03.663Z,1.08
2023-05-12T18:25:30.212Z,0.50
2023-05-12T18:27:56.783Z,2.83
2023-05-12T18:30:23.331Z,1.95
2023-05-12T18:32:50.715Z,0.75
2023-05-12T18:35:17.333Z,0.65
2023-05-12T18:37:44.175Z,2.00
2023-05-12T18:40:11.189Z,1.00
2023-05-12T18:42:38.614Z,1.25
2023-05-12T18:45:05.775Z,0.47
2023-05-12T18:47:33.240Z,0.60
2023-05-12T18:49:59.964Z,1.23
2023-05-12T18:52:26.695Z,0.50
2023-05-12T18:54:53.280Z,1.58
2023-05-12T18:57:19.930Z,0.98
2023-05-12T18:59:46.450Z,3.85
2023-05-12T19:02:13.051Z,1.40
2023-05-12T19:04:39.649Z,1.02
2023-05-12T19:07:09.323Z,0.70
2023-05-12T19:09:36.602Z,0.68
2023-05-12T19:12:05.628Z,1.48
2023-05-12T19:14:32.180Z,1.00
2023-05-12T19:16:58.805Z,1.15
2023-05-12T19:19:25.507Z,1.23
2023-05-12T19:21:52.255Z,1.67
2023-05-12T19:24:18.831Z,1.10
2023-05-12T19:26:45.455Z,1.48
2023-05-12T19:29:12.411Z,1.38
2023-05-12T19:31:39.047Z,1.83
2023-05-12T19:34:05.828Z,3.53
2023-05-12T19:36:32.630Z,1.75
2023-05-12T19:39:01.976Z,3.13
2023-05-12T19:41:29.049Z,4.50
2023-05-12T19:43:56.356Z,2.58
2023-05-12T19:46:23.529Z,3.60
2023-05-12T19:48:51.591Z,2.10
2023-05-12T19:51:18.249Z,3.05
2023-05-12T19:53:44.781Z,1.58
2023-05-12T19:56:11.413Z,2.80
2023-05-12T19:58:38.242Z,4.90
2023-05-12T20:01:05.017Z,1.88
2023-05-12T20:03:31.794Z,2.28
2023-05-12T20:05:58.730Z,2.00
2023-05-12T20:08:25.300Z,2.65
2023-05-12T20:10:52.035Z,3.22
2023-05-12T20:13:18.576Z,1.95
2023-05-12T20:15:45.218Z,5.00
2023-05-12T20:18:14.030Z,2.83
2023-05-12T20:20:42.329Z,3.35
2023-05-12T20:23:09.417Z,5.07
2023-05-12T20:25:36.217Z,2.47
2023-05-12T20:28:03.037Z,3.35
2023-05-12T20:30:29.800Z,2.60
2023-05-12T20:32:56.438Z,3.08
2023-05-12T20:35:23.434Z,3.47
2023-05-12T20:37:50.535Z,2.67
2023-05-12T20:40:17.174Z,2.92
2023-05-12T20:42:45.864Z,3.05
2023-05-12T20:45:13.312Z,3.70
2023-05-12T20:47:40.061Z,4.72
2023-05-12T20:50:08.139Z,3.33
2023-05-12T20:52:39.289Z,4.13
2023-05-12T20:55:06.889Z,4.90
2023-05-12T20:57:33.801Z,3.20
2023-05-12T21:00:00.475Z,3.38
2023-05-12T21:02:29.060Z,5.57
2023-05-12T21:04:56.122Z,3.47
2023-05-12T21:07:22.781Z,8.27
2023-05-12T21:09:49.348Z,4.60
2023-05-12T21:12:15.916Z,4.70
2023-05-12T21:14:44.274Z,3.50
2023-05-12T21:17:11.985Z,3.45
2023-05-12T21:19:39.918Z,4.32
2023-05-12T21:22:07.583Z,5.28
2023-05-12T21:24:34.359Z,4.15
2023-05-12T21:27:05.837Z,4.45
2023-05-12T21:29:33.382Z,5.13
2023-05-12T21:32:00.780Z,4.25
2023-05-12T21:34:27.662Z,4.57
2023-05-12T21:36:54.655Z,4.00
2023-05-12T21:39:21.926Z,4.13
2023-05-12T21:41:48.709Z,3.60
2023-05-12T21:44:15.325Z,3.78
2023-05-12T21:46:42.500Z,6.25
2023-05-12T21:49:11.818Z,4.93
2023-05-12T21:51:39.251Z,4.65
2023-05-12T21:54:15.351Z,3.88
2023-05-12T21:56:41.886Z,3.80
2023-05-12T21:59:09.042Z,5.38
2023-05-12T22:01:35.619Z,3.80
2023-05-12T22:04:02.293Z,4.80
2023-05-12T22:06:28.953Z,3.78
2023-05-12T22:08:55.612Z,4.25
2023-05-12T22:11:23.200Z,7.65
2023-05-12T22:13:50.297Z,4.38
2023-05-12T22:16:18.583Z,4.15
2023-05-12T22:18:46.899Z,4.63
2023-05-12T22:21:13.570Z,4.15
2023-05-12T22:23:41.990Z,4.38
2023-05-12T22:26:09.380Z,4.25
2023-05-12T22:28:36.267Z,7.47
2023-05-12T22:31:03.126Z,5.63
2023-05-12T22:33:29.734Z,5.70
2023-05-12T22:35:59.572Z,5.95
2023-05-12T22:38:29.459Z,6.28
2023-05-12T22:40:56.124Z,4.63
2023-05-12T22:43:22.770Z,4.00
2023-05-12T22:45:51.082Z,5.60
2023-05-12T22:48:19.026Z,6.75
2023-05-12T22:50:46.213Z,6.30
2023-05-12T22:53:13.095Z,8.88
2023-05-12T22:55:40.302Z,7.38
2023-05-12T22:58:06.902Z,5.57
2023-05-12T23:00:33.623Z,5.35
2023-05-12T23:03:00.474Z,5.97
2023-05-12T23:05:27.060Z,6.25
2023-05-12T23:07:53.608Z,6.57
2023-05-12T23:10:20.554Z,5.68
2023-05-12T23:12:47.305Z,5.15
2023-05-12T23:15:13.897Z,4.95
2023-05-12T23:17:40.577Z,6.10
2023-05-12T23:20:08.030Z,5.40
2023-05-12T23:22:34.539Z,5.38
2023-05-12T23:25:01.094Z,5.60
2023-05-12T23:27:27.614Z,8.05
2023-05-12T23:29:54.161Z,5.80
2023-05-12T23:32:20.863Z,8.30
2023-05-12T23:34:47.542Z,8.35
2023-05-12T23:37:14.133Z,7.15
2023-05-12T23:39:40.806Z,5.50
2023-05-12T23:42:07.371Z,5.28
2023-05-12T23:44:33.895Z,6.07
2023-05-12T23:47:00.840Z,7.05
2023-05-12T23:49:27.426Z,5.55
2023-05-12T23:51:54.095Z,5.93
2023-05-12T23:54:20.815Z,6.38
2023-05-12T23:56:47.462Z,7.65
2023-05-12T23:59:14.084Z,6.88
